LiveATC.Net - Listen to live air traffic control over the Internet!

Find LiveATC Audio Streams


Airport/ARTCC Code

Frequency
(e.g., 124.400, 128.75)
Site-wide search

Browse LiveATC Feeds
LiveATC Coverage Map
Top 50 LiveATC Feeds
Bad Weather Areas

LiveATC FAQ
Offer a LiveATC Feed
Contact LiveATC.net
Press Inquiries

LiveATC on iPhone
LiveATC on Android

Windows Phone
Windows 8/10

LiveATC Mobile
(Mobile browser)

ATC Audio Archives
Interesting Recordings

LiveATC Forums

Home Page
About LiveATC.net
Make a Donation
LiveATC Store

Terms of Use
Privacy Policy

Canadian Air Freqs

AIRMETs/SIGMETs

FAA Airport Status
Nat'l Airspace Status
Arrival Demand Charts


Server Software By:
Icecast.org
Liquidsoap


Current Potentially Bad Weather Airports
(updated every 30 minutes - sorted alphabetically by ICAO code)



This page lists LiveATC.net airport areas that may be interesting to listen to because of challenging flying (weather) conditions. Challenging weather conditions include low ceilings, limited visibility, high or gusty winds, or thunderstorms.

Updated: Thu Apr 28 19:40:01 UTC 2016
Click on airport name to go to that airport area's feeds.

ESOE Twr/AppOrebro Airport
WX MAP UNAVAILABLENearest METAR:
ESOE 281920Z 22007KT 2300 -SN OVC006 01/M00 Q1005
KALO Gnd/Twr/AppWaterloo Regional Airport
kaloNearest METAR:
KALO 281854Z 00000KT 1 1/2SM R12/5500VP6000FT -RA BR BKN008 OVC013 09/08 A2988 RMK AO2 RAB31 CIG 004V010 SLP122 P0001 T00940083
KAPA Gnd/Twr/Denver AppCentennial Airport
kapaNearest METAR:
KAPA 281853Z 10010KT 9SM -SN FEW007 BKN013 OVC018 02/M01 A2995 RMK AO2 SNB14 SLP156 P0000 T00221006
KASE Del/Gnd/Twr/ZDVAspen-Pitkin County Airport/Sardy Field
kaseNearest METAR:
KASE 281853Z 34005KT 10SM SCT030 BKN060 07/01 A2978 RMK AO2 LTG DSNT S SLP025 T00720011
KBFM Ground/TowerMobile Downtown Airport
kbfmNearest METAR:
KBFM 281853Z 34008KT 10SM CLR 23/21 A2995 RMK AO2 LTG DSNT SE SLP142 T02280206
KBJC Ground/Tower #2Rocky Mountain Metropolitan Airport
kbjcNearest METAR:
KBJC 281845Z VRB03KT 5SM -SN BKN008 OVC014 03/00 A2998
KBTR/KHZR/L38 Del/Gnd/Twr/App/CTAFBaton Rouge Metropolitan Airport - Ryan Field
khzrNearest METAR:
KHZR 281915Z AUTO 08008KT 10SM BKN038 29/21 A2990 RMK AO2 LTG DSNT SE T02920207
KBVI Ground/TowerBeaver County Airport
kbviNearest METAR:
KBVI 281847Z 00000KT 2 1/2SM -RA OVC008 07/06 A2990
KCAK Del/Gnd/Twr/AppAkron-Canton Regional Airport
kcakNearest METAR:
KCAK 281851Z 06009KT 7SM OVC008 09/07 A2991 RMK AO2 SLP131 T00890067 $
KCHO Ground/TowerCharlottesville-Albemarle Airport
kchoNearest METAR:
KCHO 281900Z 06008KT 7SM BKN008 OVC012 15/13 A2992 RMK AO2 LTG DSNT NW CIG 006V011 T01500128
KCRW Tower/ApproachYeager Airport
kcrwNearest METAR:
KCRW 281919Z VRB05KT 10SM TS SCT042CB SCT080 25/15 A2982 RMK AO2 TSE13B16 OCNL LTGICCG SW TS SW MOV E VCSH T02500150
KDBQ Gnd/Twr/ZAUDubuque Regional Airport
kdbqNearest METAR:
KDBQ 281853Z 08009KT 7SM OVC007 08/06 A2988 RMK AO2 SLP125 T00780061
KGAI CTAF/UNICOMMontgomery County Airpark
kgaiNearest METAR:
KGAI 281915Z AUTO 09003KT 1 3/4SM OVC006 11/08 A3002 RMK AO1
KGAO AWOSSouth Lafourche Leonard Miller Jr. Airport
kgaoNearest METAR:
KGAO 281915Z AUTO 18007KT 10SM SCT017 OVC043 29/24 A2993 RMK AO2 LTG DSNT NW THRU E T02910236
KGJT Gnd/Twr/App/ZDVGrand Junction Regional Airport
kgjtNearest METAR:
KGJT 281853Z 30008KT 10SM -RA SCT070 OVC095 08/06 A2975 RMK AO2 LTG DSNT N AND S AND NW RAB1755E05B19 SLP047 P0000 T00830061
KGSO Del/Gnd/Twr/App/ZTLPiedmont Triad International Airport
kgsoNearest METAR:
KGSO 281917Z 19008KT 10SM TS SCT036CB BKN095 28/17 A2984 RMK AO2 TSB16 OCNL LTGIC SW TS SW MOV E TCU NE
KHDC De/Gnd/Twr/App/ZHUHammond Northshore Regional Airport
khdcNearest METAR:
KHDC 281915Z AUTO 15009KT 10SM OVC016 26/20 A2994 RMK AO2 LTG DSNT S
KHEF Del/Gnd/TwrManassas Regional Airport/Harry P. Davis Field
khefNearest METAR:
KHEF 281845Z 12004KT 10SM OVC009 13/12 A2998
KIAD Del/GndWashington Dulles International Airport
kiadNearest METAR:
KIAD 281912Z 05007KT 1 1/2SM -DZ BR OVC005 11/09 A2997 RMK AO2 P0000 T01060094
KJYO CTAF/Del/SFRALeesburg Executive Airport
kjyoNearest METAR:
KJYO 281915Z AUTO 07004KT 1 1/4SM BR OVC007 11/11 A2998 RMK AO2 LTG DSNT SW
KIND GroundIndianapolis International Airport
kindNearest METAR:
KIND 281926Z 23011KT 10SM FEW047 BKN065 BKN100 22/16 A2980 RMK AO2 PK WND 20027/1859 LTG DSNT N AND E RAB01E25 TSB04E24 CB DSNT N-SE MOV NE P0005 T02170161
KLBX CTAFTexas Gulf Coast Regional Airport
klbxNearest METAR:
KLBX 281919Z AUTO 09008KT 7SM OVC008 25/23 A2982 RMK AO2 RAB03E16 CIG 007V011 P0000 T02500233
KLYH Ground/TowerLynchburg Regional Airport/Preston Glenn Field
klyhNearest METAR:
KLYH 281854Z 07005KT 3SM R04/6000VP6000FT BR OVC005 16/16 A2991 RMK AO2 SLP125 T01610156
KMKE ApproachGeneral Mitchell International Airport
kmkeNearest METAR:
KMKE 281852Z 07013KT 6SM BR OVC004 04/03 A2996 RMK AO2 SLP150 T00440028
KMSY Gnd/Twr/AppLouis Armstrong New Orleans International Airport
kmsyNearest METAR:
KMSY 281922Z 12010KT 7SM TS SCT022 BKN038CB OVC049 24/22 A2994 RMK AO2 RAB1854E21 OCNL LTGICCG NE-S TS NE-S MOV E P0036 T02390222 $
KMWC Gnd/Twr/AppLawrence J Timmerman Airport
kmwcNearest METAR:
KMWC 281845Z 06009G15KT 2 1/2SM BR OVC005 03/02 A2998
KNEW Del/Gnd/TwrLakefront Airport
knewNearest METAR:
KNEW 281853Z 13012G17KT 6SM +TSRA BR SCT048 OVC060 21/21 A2995 RMK AO2 LTG DSNT ALQDS SLP135 P0003 T02060206 $
KNGU Del/Gnd/Twr/App/ZDCNorfolk Naval Station (Chambers Field)
knguNearest METAR:
KNGU 281859Z 08008KT 2SM BR OVC003 15/14 A2993 RMK AO2 SFC VIS 3 RAB13E42 SLP136 CB DSNT E T2 SET P0001 T01500139
KORF Gnd/Twr/App/RadarNorfolk International Airport
korfNearest METAR:
KORF 281851Z AUTO 09006KT 9SM -RA OVC004 15/14 A2992 RMK AO2 RAB20 SLP132 P0004 T01500139 TSNO
KPHF Ground/TowerNewport News/Williamsburg International Airport
kphfNearest METAR:
KPHF 281854Z 11009KT 10SM OVC005 14/13 A2994 RMK AO2 SLP136 T01440133
KPIT Gnd/Twr/AppPittsburgh International Airport
kpitNearest METAR:
KPIT 281851Z 03007KT 2 1/2SM -DZ BR OVC003 11/09 A2988 RMK AO2 RAE28DZB28 SLP127 P0000 T01060089
KPKB Gnd/Twr/UnicomMid-Ohio Valley Regional Airport
kpkbNearest METAR:
KPKB 281853Z VRB06KT 10SM BKN035 BKN043 24/16 A2984 RMK AO2 LTG DSNT S-W SLP098 T02440156
KPNS/KNPA Del/Gnd/Twr/AppPensacola Naval Air Station (Forrest Sherman Field)
kpnsNearest METAR:
KPNS 281853Z 33010G20KT 10SM FEW011 25/17 A2995 RMK AO2 PK WND 21037/1754 WSHFT 1751 LTG DSNT SW RAE14 SLP142 P0000 T02500172
KPNS/KNPA Del/Gnd/Twr/AppPensacola Naval Air Station (Forrest Sherman Field)
knpaNearest METAR:
KNPA 281856Z 21023G36KT 7SM -RA FEW011 BKN110 BKN200 23/17 A2990 RMK PK WND 21038/1838 RAB40 CB DSNT S-SW T1 SET P0001 T02330172
KRIC Del/Gnd/Twr/AppRichmond International Airport
kricNearest METAR:
KRIC 281854Z 08004KT 2 1/2SM BR OVC004 14/14 A2993 RMK AO2 SFC VIS 3 SLP139 T01440139
KTLH Del/Gnd/Twr/AppTallahassee Regional Airport
ktlhNearest METAR:
KTLH 281853Z 25003KT 10SM -TSRA SCT033CB BKN085 OVC250 27/21 A2998 RMK AO2 RAB29 TSB23 SLP150 TS SW MOV NE P0000 T02720211
KUES Gnd/TwrWaukesha County Airport
kuesNearest METAR:
KUES 281845Z 06012G16KT 5SM BR OVC006 03/02 A2997
PASC CTAF/Unicom/AFIS/AppDeadhorse Airport
WX MAP UNAVAILABLENearest METAR:
PASC 281925Z 17004KT 1 1/2SM R05/2200VP6000FT BR BKN003 M06/M07 A2988 RMK AO2 I1000 T10561067
UNKL Gnd/Twr/AppYemelyanovo International Airport
WX MAP UNAVAILABLENearest METAR:
UNKL 281900Z 00000MPS 9000 SCT043 01/01 Q1012 R11/190060 TEMPO 0900 FG VV003 RMK QFE734
UNNT Gnd/Twr/App/Radar/MiscTolmachevo Airport
WX MAP UNAVAILABLENearest METAR:
UNNT 281900Z 04002MPS 9999 OVC034CB 06/04 Q1013 R25/290155 R16/290155 NOSIG RMK QFE750/1000
WMKB RadarButterworth Airport
WX MAP UNAVAILABLENearest METAR:
WMKB 281900Z 28003KT 6000 -RA FEW010 FEW017CB SCT024 BKN260 27/26 Q1008 RETSRA NOSIG
WMKP TowerPenang International Airport
WX MAP UNAVAILABLENearest METAR:
WMKP 281900Z 23007KT 7000 -TSRA FEW012 FEW017CB SCT025 BKN260 26/24 Q1009 NOSIG
YMML/YMMB/YMENEssendon Airport
WX MAP UNAVAILABLENearest METAR:
YMML 281900Z 36014KT CAVOK 20/08 Q1014 FM2100 36018G32KT 9999 -SHRA FEW060 BKN100 FM1900 MOD/SEV TURB BLW 5000FT